createdAt,value
2023-05-02T00:01:41.144Z,4.80
2023-05-02T00:04:26.659Z,5.07
2023-05-02T00:07:12.239Z,4.60
2023-05-02T00:09:58.444Z,4.70
2023-05-02T00:12:43.726Z,4.28
2023-05-02T00:15:29.315Z,3.58
2023-05-02T00:18:14.619Z,3.60
2023-05-02T00:20:59.892Z,3.92
2023-05-02T00:23:45.462Z,4.40
2023-05-02T00:26:30.948Z,3.90
2023-05-02T00:29:17.208Z,3.55
2023-05-02T00:32:02.640Z,3.60
2023-05-02T00:34:48.183Z,3.22
2023-05-02T00:37:33.654Z,3.22
2023-05-02T00:40:19.091Z,2.60
2023-05-02T00:43:04.537Z,3.00
2023-05-02T00:45:50.698Z,2.85
2023-05-02T00:48:36.606Z,2.83
2023-05-02T00:51:22.175Z,3.03
2023-05-02T00:54:07.562Z,2.65
2023-05-02T00:56:52.866Z,2.80
2023-05-02T00:59:38.310Z,2.60
2023-05-02T01:02:43.367Z,2.13
2023-05-02T01:05:36.442Z,2.45
2023-05-02T01:08:46.978Z,1.80
2023-05-02T01:11:46.635Z,1.90
2023-05-02T01:14:36.279Z,2.17
2023-05-02T01:17:28.874Z,1.60
2023-05-02T01:20:18.509Z,1.75
2023-05-02T01:23:12.680Z,1.45
2023-05-02T01:26:13.519Z,1.40
2023-05-02T01:29:07.068Z,1.60
2023-05-02T01:31:52.492Z,1.42
2023-05-02T01:34:41.587Z,1.40
2023-05-02T01:37:29.195Z,1.58
2023-05-02T01:40:18.434Z,1.50
2023-05-02T01:43:06.008Z,1.27
2023-05-02T01:45:53.144Z,1.50
2023-05-02T01:48:40.754Z,1.60
2023-05-02T01:51:31.948Z,1.35
2023-05-02T01:54:18.603Z,1.58
2023-05-02T01:57:07.551Z,1.63
2023-05-02T01:59:56.668Z,1.25
2023-05-02T02:02:43.652Z,1.48
2023-05-02T02:05:29.701Z,1.67
2023-05-02T02:08:14.979Z,1.33
2023-05-02T02:11:07.658Z,1.30
2023-05-02T02:14:04.802Z,1.50
2023-05-02T02:16:53.395Z,1.30
2023-05-02T02:19:40.632Z,1.20
2023-05-02T02:22:28.796Z,1.50
2023-05-02T02:25:17.148Z,1.67
2023-05-02T02:28:02.269Z,1.60
2023-05-02T02:30:48.017Z,1.48
2023-05-02T02:33:33.650Z,1.38
2023-05-02T02:36:27.493Z,1.52
2023-05-02T02:39:39.104Z,1.50
2023-05-02T02:42:52.102Z,1.50
2023-05-02T02:45:56.929Z,1.50
2023-05-02T02:48:52.300Z,1.40
2023-05-02T02:52:10.458Z,2.00
2023-05-02T02:55:07.368Z,1.35
2023-05-02T02:57:58.908Z,1.50
2023-05-02T03:00:46.073Z,1.30
2023-05-02T03:03:33.279Z,1.20
2023-05-02T03:06:19.399Z,1.30
2023-05-02T03:09:05.092Z,1.40
2023-05-02T03:11:51.029Z,1.33
2023-05-02T03:14:37.521Z,1.50
2023-05-02T03:17:25.647Z,1.95
2023-05-02T03:20:11.461Z,1.40
2023-05-02T03:22:56.726Z,1.60
2023-05-02T03:25:42.741Z,1.80
2023-05-02T03:28:30.983Z,2.05
2023-05-02T03:31:17.035Z,1.50
2023-05-02T03:34:02.703Z,1.75
2023-05-02T03:36:48.318Z,1.70
2023-05-02T03:39:34.243Z,1.77
2023-05-02T03:42:21.886Z,1.98
2023-05-02T03:45:08.228Z,1.75
2023-05-02T03:47:53.987Z,1.88
2023-05-02T03:50:39.694Z,1.90
2023-05-02T03:53:25.110Z,2.00
2023-05-02T03:56:23.285Z,2.05
2023-05-02T03:59:35.276Z,2.10
2023-05-02T04:02:27.983Z,2.55
2023-05-02T04:05:13.694Z,2.30
2023-05-02T04:07:59.309Z,2.65
2023-05-02T04:10:44.652Z,3.17
2023-05-02T04:13:30.619Z,2.70
2023-05-02T04:16:17.132Z,2.80
2023-05-02T04:19:02.438Z,2.30
2023-05-02T04:21:47.734Z,2.85
2023-05-02T04:24:33.542Z,2.75
2023-05-02T04:27:19.093Z,2.65
2023-05-02T04:30:06.133Z,2.60
2023-05-02T04:32:52.335Z,3.10
2023-05-02T04:35:41.082Z,2.50
2023-05-02T04:38:28.580Z,2.85
2023-05-02T04:41:15.078Z,2.65
2023-05-02T04:44:05.832Z,2.92
2023-05-02T04:46:52.919Z,2.88
2023-05-02T04:49:38.612Z,2.60
2023-05-02T04:52:24.489Z,2.85
2023-05-02T04:55:09.943Z,3.05
2023-05-02T04:57:56.458Z,2.60
2023-05-02T05:00:44.244Z,2.72
2023-05-02T05:03:33.491Z,2.65
2023-05-02T05:06:19.539Z,2.53
2023-05-02T05:09:05.985Z,2.35
2023-05-02T05:11:53.570Z,2.10
2023-05-02T05:14:39.505Z,2.03
2023-05-02T05:17:25.090Z,2.00
2023-05-02T05:20:11.565Z,2.10
2023-05-02T05:22:58.172Z,2.10
2023-05-02T05:25:45.853Z,2.25
2023-05-02T05:28:33.543Z,1.95
2023-05-02T05:31:19.307Z,2.00
2023-05-02T05:34:08.774Z,2.00
2023-05-02T05:36:54.471Z,1.65
2023-05-02T05:39:41.427Z,1.60
2023-05-02T05:42:27.708Z,1.67
2023-05-02T05:45:19.465Z,2.10
2023-05-02T05:48:05.515Z,1.80
2023-05-02T05:50:55.241Z,2.00
2023-05-02T05:53:40.838Z,1.92
2023-05-02T05:56:28.230Z,2.50
2023-05-02T05:59:20.712Z,2.10
2023-05-02T06:02:06.821Z,1.92
2023-05-02T06:04:52.640Z,2.03
2023-05-02T06:07:41.086Z,2.05
2023-05-02T06:10:26.513Z,1.80
2023-05-02T06:13:12.450Z,1.80
2023-05-02T06:16:03.775Z,2.17
2023-05-02T06:18:51.945Z,2.10
2023-05-02T06:21:38.023Z,1.65
2023-05-02T06:24:23.826Z,1.60
2023-05-02T06:27:09.209Z,1.83
2023-05-02T06:29:54.698Z,1.27
2023-05-02T06:32:42.285Z,1.42
2023-05-02T06:35:27.903Z,1.77
2023-05-02T06:38:13.319Z,1.20
2023-05-02T06:40:58.950Z,1.20
2023-05-02T06:43:44.311Z,1.70
2023-05-02T06:46:30.962Z,1.77
2023-05-02T06:49:16.650Z,1.42
2023-05-02T06:52:02.204Z,1.70
2023-05-02T06:54:47.567Z,1.60
2023-05-02T06:57:33.086Z,1.50
2023-05-02T07:00:19.621Z,1.80
2023-05-02T07:03:05.089Z,1.40
2023-05-02T07:05:50.550Z,1.35
2023-05-02T07:08:36.175Z,1.85
2023-05-02T07:11:23.480Z,1.98
2023-05-02T07:14:08.805Z,1.63
2023-05-02T07:16:54.492Z,1.88
2023-05-02T07:19:40.678Z,1.38
2023-05-02T07:22:26.964Z,1.25
2023-05-02T07:25:12.318Z,1.30
2023-05-02T07:27:57.868Z,1.52
2023-05-02T07:30:43.036Z,1.23
2023-05-02T07:33:28.826Z,1.05
2023-05-02T07:36:14.154Z,1.00
2023-05-02T07:38:59.820Z,1.10
2023-05-02T07:41:45.335Z,1.30
2023-05-02T07:44:30.494Z,1.00
2023-05-02T07:47:16.064Z,1.10
2023-05-02T07:50:02.065Z,0.90
2023-05-02T07:52:47.531Z,1.20
2023-05-02T07:55:33.372Z,1.33
2023-05-02T07:58:18.629Z,1.10
2023-05-02T08:01:04.560Z,1.17
2023-05-02T08:03:50.137Z,1.00
2023-05-02T08:06:36.746Z,1.02
2023-05-02T08:09:22.424Z,1.20
2023-05-02T08:12:07.832Z,1.00
2023-05-02T08:14:53.915Z,1.20
2023-05-02T08:17:39.690Z,1.30
2023-05-02T08:20:25.238Z,1.15
2023-05-02T08:23:10.743Z,1.20
2023-05-02T08:25:56.385Z,1.20
2023-05-02T08:28:41.722Z,1.02
2023-05-02T08:31:27.143Z,0.90
2023-05-02T08:34:12.675Z,1.15
2023-05-02T08:36:58.613Z,1.55
2023-05-02T08:39:43.922Z,1.30
2023-05-02T08:42:31.439Z,1.50
2023-05-02T08:45:18.077Z,1.30
2023-05-02T08:48:07.838Z,1.33
2023-05-02T08:50:54.082Z,1.50
2023-05-02T08:53:40.712Z,1.35
2023-05-02T08:56:26.180Z,1.40
2023-05-02T08:59:11.284Z,1.17
2023-05-02T09:02:01.271Z,1.27
2023-05-02T09:04:50.933Z,1.52
2023-05-02T09:07:49.353Z,1.63
2023-05-02T09:10:38.591Z,1.10
2023-05-02T09:13:35.324Z,1.30
2023-05-02T09:16:25.693Z,1.25
2023-05-02T09:19:23.407Z,1.10
2023-05-02T09:22:08.554Z,1.48
2023-05-02T09:24:55.151Z,1.73
2023-05-02T09:27:56.845Z,1.42
2023-05-02T09:30:42.312Z,1.70
2023-05-02T09:33:28.055Z,1.30
2023-05-02T09:36:18.656Z,1.67
2023-05-02T09:39:13.776Z,2.10
2023-05-02T09:41:59.526Z,2.22
2023-05-02T09:44:44.714Z,1.40
2023-05-02T09:47:30.256Z,1.40
2023-05-02T09:50:35.269Z,1.58
2023-05-02T09:53:20.674Z,1.58
2023-05-02T09:56:06.295Z,1.60
2023-05-02T09:58:51.311Z,1.55
2023-05-02T10:01:36.786Z,1.60
2023-05-02T10:04:22.243Z,1.70
2023-05-02T10:07:10.581Z,1.30
2023-05-02T10:10:00.065Z,1.30
2023-05-02T10:12:47.378Z,1.40
2023-05-02T10:15:33.839Z,1.15
2023-05-02T10:18:32.396Z,1.60
2023-05-02T10:21:25.238Z,1.75
2023-05-02T10:24:12.269Z,1.80
2023-05-02T10:26:58.119Z,1.50
2023-05-02T10:29:44.740Z,1.70
2023-05-02T10:32:32.717Z,1.63
2023-05-02T10:35:18.940Z,1.60
2023-05-02T10:38:06.123Z,1.73
2023-05-02T10:40:56.094Z,1.63
2023-05-02T10:43:45.815Z,1.58
2023-05-02T10:46:35.040Z,1.98
2023-05-02T10:49:23.053Z,1.52
2023-05-02T10:52:30.472Z,2.10
2023-05-02T10:55:22.056Z,1.42
2023-05-02T10:58:07.718Z,1.60
2023-05-02T11:00:53.115Z,1.77
2023-05-02T11:04:01.434Z,2.00
2023-05-02T11:06:59.262Z,1.75
2023-05-02T11:09:44.723Z,1.77
2023-05-02T11:13:01.108Z,2.20
2023-05-02T11:15:52.090Z,2.17
2023-05-02T11:19:00.783Z,1.95
2023-05-02T11:21:46.134Z,1.85
2023-05-02T11:24:41.741Z,1.95
2023-05-02T11:27:30.278Z,1.88
2023-05-02T11:30:35.782Z,2.13
2023-05-02T11:33:21.718Z,1.95
2023-05-02T11:36:07.511Z,1.83
2023-05-02T11:38:53.074Z,2.00
2023-05-02T11:41:39.832Z,1.70
2023-05-02T11:44:25.362Z,1.65
2023-05-02T11:47:10.756Z,1.75
2023-05-02T11:49:57.468Z,2.08
2023-05-02T11:52:44.495Z,1.80
2023-05-02T11:55:30.032Z,1.90
2023-05-02T11:58:17.981Z,2.17
2023-05-02T12:01:14.372Z,1.73
2023-05-02T12:04:08.025Z,1.75
2023-05-02T12:06:58.027Z,1.88
2023-05-02T12:09:54.041Z,2.13
2023-05-02T12:12:40.884Z,2.00
2023-05-02T12:15:26.630Z,1.70
2023-05-02T12:18:13.283Z,1.60
2023-05-02T12:20:59.237Z,1.90
2023-05-02T12:23:44.880Z,2.00
2023-05-02T12:26:31.933Z,1.88
2023-05-02T12:29:17.332Z,2.40
2023-05-02T12:32:03.061Z,2.28
2023-05-02T12:34:49.076Z,1.60
2023-05-02T12:37:34.566Z,1.90
2023-05-02T12:40:20.570Z,2.20
2023-05-02T12:43:10.337Z,1.70
2023-05-02T12:46:10.429Z,1.90
2023-05-02T12:49:14.065Z,2.00
2023-05-02T12:51:59.824Z,2.13
2023-05-02T12:54:46.508Z,2.40
2023-05-02T12:57:32.258Z,1.98
2023-05-02T13:00:18.281Z,1.90
2023-05-02T13:03:04.401Z,1.75
2023-05-02T13:05:54.302Z,2.30
2023-05-02T13:08:39.742Z,2.42
2023-05-02T13:11:25.291Z,1.90
2023-05-02T13:14:11.684Z,2.35
2023-05-02T13:16:57.416Z,2.03
2023-05-02T13:19:50.551Z,2.05
2023-05-02T13:22:43.861Z,1.80
2023-05-02T13:25:28.986Z,1.90
2023-05-02T13:28:14.608Z,2.08
2023-05-02T13:30:59.874Z,1.80
2023-05-02T13:33:45.278Z,1.70
2023-05-02T13:36:30.846Z,1.60
2023-05-02T13:39:16.301Z,2.40
2023-05-02T13:42:05.889Z,2.08
2023-05-02T13:44:51.777Z,1.92
2023-05-02T13:47:38.764Z,2.33
2023-05-02T13:50:24.920Z,2.10
2023-05-02T13:53:11.174Z,1.45
2023-05-02T13:55:56.477Z,1.80
2023-05-02T13:58:41.982Z,1.35
2023-05-02T14:01:28.414Z,1.50
2023-05-02T14:04:13.799Z,1.30
2023-05-02T14:06:59.279Z,1.20
2023-05-02T14:09:44.852Z,1.88
2023-05-02T14:12:30.988Z,1.90
2023-05-02T14:15:16.241Z,1.40
2023-05-02T14:18:02.212Z,1.90
2023-05-02T14:20:47.510Z,1.40
2023-05-02T14:23:32.921Z,1.48
2023-05-02T14:26:20.011Z,1.75
2023-05-02T14:29:05.286Z,1.33
2023-05-02T14:31:50.738Z,1.25
2023-05-02T14:34:36.091Z,1.38
2023-05-02T14:37:21.588Z,1.30
2023-05-02T14:40:08.066Z,1.40
2023-05-02T14:42:53.523Z,1.00
2023-05-02T14:45:38.972Z,1.30
2023-05-02T14:48:24.324Z,1.10
2023-05-02T14:51:09.755Z,1.02
2023-05-02T14:53:54.940Z,1.10
2023-05-02T14:56:41.183Z,1.00
2023-05-02T14:59:29.496Z,0.93
2023-05-02T15:02:15.164Z,1.10
2023-05-02T15:05:01.300Z,1.10
2023-05-02T15:07:46.448Z,0.80
2023-05-02T15:10:34.492Z,1.20
2023-05-02T15:13:20.134Z,0.98
2023-05-02T15:16:05.887Z,1.30
2023-05-02T15:18:51.540Z,1.20
2023-05-02T15:21:37.362Z,0.80
2023-05-02T15:24:24.426Z,1.10
2023-05-02T15:27:09.905Z,1.20
2023-05-02T15:29:55.377Z,1.20
2023-05-02T15:32:41.061Z,1.25
2023-05-02T15:35:26.417Z,0.90
2023-05-02T15:38:11.850Z,2.78
2023-05-02T15:40:59.525Z,1.40
2023-05-02T15:43:45.016Z,1.40
2023-05-02T15:46:30.593Z,2.33
2023-05-02T15:49:16.093Z,1.30
2023-05-02T15:52:01.939Z,1.17
2023-05-02T15:54:47.261Z,1.30
2023-05-02T15:57:32.804Z,1.35
2023-05-02T16:00:18.388Z,0.80
2023-05-02T16:03:04.236Z,1.20
2023-05-02T16:05:52.912Z,1.10
2023-05-02T16:08:38.024Z,1.10
2023-05-02T16:11:23.830Z,1.23
2023-05-02T16:14:09.272Z,1.42
2023-05-02T16:16:55.834Z,1.25
2023-05-02T16:19:40.921Z,1.08
2023-05-02T16:22:28.184Z,1.15
2023-05-02T16:25:14.762Z,1.20
2023-05-02T16:28:00.491Z,0.88
2023-05-02T16:30:45.770Z,1.20
2023-05-02T16:33:31.160Z,1.30
2023-05-02T16:36:17.216Z,1.10
2023-05-02T16:39:02.634Z,0.95
2023-05-02T16:41:49.397Z,1.20
2023-05-02T16:44:34.683Z,1.00
2023-05-02T16:47:20.127Z,1.20
2023-05-02T16:50:06.222Z,1.20
2023-05-02T16:52:52.058Z,0.90
2023-05-02T16:55:37.456Z,1.00
2023-05-02T16:58:22.896Z,1.20
2023-05-02T17:01:08.515Z,1.10
2023-05-02T17:03:53.806Z,0.90
2023-05-02T17:06:39.252Z,0.80
2023-05-02T17:09:25.198Z,1.10
2023-05-02T17:12:11.424Z,0.88
2023-05-02T17:14:56.646Z,1.10
2023-05-02T17:17:43.888Z,1.33
2023-05-02T17:20:29.342Z,1.10
2023-05-02T17:23:14.653Z,1.05
2023-05-02T17:26:00.077Z,0.93
2023-05-02T17:28:46.067Z,1.20
2023-05-02T17:31:31.390Z,0.98
2023-05-02T17:34:16.758Z,1.10
2023-05-02T17:37:02.270Z,0.90
2023-05-02T17:39:47.809Z,1.33
2023-05-02T17:42:33.278Z,1.10
2023-05-02T17:45:18.520Z,1.00
2023-05-02T17:48:04.217Z,1.13
2023-05-02T17:50:50.941Z,1.10
2023-05-02T17:53:36.775Z,1.05
2023-05-02T17:56:22.083Z,0.90
2023-05-02T17:59:08.215Z,1.10
2023-05-02T18:01:53.416Z,0.70
2023-05-02T18:04:39.029Z,0.90
2023-05-02T18:07:24.622Z,1.10
2023-05-02T18:10:10.309Z,0.60
2023-05-02T18:12:55.394Z,0.70
2023-05-02T18:15:41.264Z,1.00
2023-05-02T18:18:26.728Z,0.90
2023-05-02T18:21:20.038Z,0.90
2023-05-02T18:24:06.167Z,1.08
2023-05-02T18:26:52.483Z,0.70
2023-05-02T18:29:37.934Z,1.00
2023-05-02T18:32:23.313Z,0.98
2023-05-02T18:35:11.054Z,0.85
2023-05-02T18:37:56.681Z,0.90
2023-05-02T18:40:42.363Z,0.80
2023-05-02T18:43:27.891Z,0.90
2023-05-02T18:46:13.346Z,0.80
2023-05-02T18:48:59.250Z,1.02
2023-05-02T18:51:44.785Z,0.90
2023-05-02T18:54:30.600Z,5.18
2023-05-02T18:57:16.089Z,1.40
2023-05-02T19:00:01.674Z,1.05
2023-05-02T19:02:47.497Z,1.33
2023-05-02T19:05:34.765Z,1.23
2023-05-02T19:08:20.906Z,1.08
2023-05-02T19:11:06.862Z,1.67
2023-05-02T19:13:52.237Z,4.32
2023-05-02T19:16:40.982Z,1.25
2023-05-02T19:19:26.697Z,1.10
2023-05-02T19:22:13.618Z,1.13
2023-05-02T19:24:59.852Z,1.23
2023-05-02T19:27:47.601Z,1.20
2023-05-02T19:30:33.382Z,1.20
2023-05-02T19:33:19.250Z,1.10
2023-05-02T19:36:07.098Z,0.90
2023-05-02T19:38:53.982Z,0.90
2023-05-02T19:41:42.308Z,0.80
2023-05-02T19:44:27.450Z,0.80
2023-05-02T19:47:13.118Z,0.88
2023-05-02T19:49:58.596Z,1.10
2023-05-02T19:52:44.837Z,0.73
2023-05-02T19:55:29.871Z,0.80
2023-05-02T19:58:15.254Z,0.90
2023-05-02T20:01:01.023Z,1.15
2023-05-02T20:03:46.470Z,0.90
2023-05-02T20:06:33.421Z,0.80
2023-05-02T20:09:18.518Z,0.82
2023-05-02T20:12:04.144Z,0.98
2023-05-02T20:14:49.333Z,0.77
2023-05-02T20:17:34.871Z,0.90
2023-05-02T20:20:20.450Z,1.00
2023-05-02T20:23:05.897Z,1.80
2023-05-02T20:25:51.415Z,5.22
2023-05-02T20:28:37.622Z,2.10
2023-05-02T20:31:22.960Z,2.20
2023-05-02T20:34:08.458Z,1.50
2023-05-02T20:36:54.178Z,1.85
2023-05-02T20:39:39.509Z,1.60
2023-05-02T20:42:25.636Z,1.20
2023-05-02T20:45:12.548Z,1.08
2023-05-02T20:47:58.188Z,1.02
2023-05-02T20:50:52.430Z,1.10
2023-05-02T20:53:38.150Z,0.85
2023-05-02T20:56:23.335Z,1.00
2023-05-02T20:59:08.944Z,1.10
2023-05-02T21:01:54.208Z,1.17
2023-05-02T21:04:40.962Z,1.20
2023-05-02T21:07:26.685Z,1.27
2023-05-02T21:10:11.934Z,2.10
2023-05-02T21:12:57.451Z,1.30
2023-05-02T21:15:42.913Z,1.10
2023-05-02T21:18:28.287Z,1.17
2023-05-02T21:21:14.139Z,1.25
2023-05-02T21:23:59.628Z,2.15
2023-05-02T21:26:45.214Z,5.03
2023-05-02T21:29:30.270Z,3.65
2023-05-02T21:32:15.817Z,2.92
2023-05-02T21:35:01.536Z,1.40
2023-05-02T21:37:47.158Z,1.40
2023-05-02T21:40:39.919Z,1.00
2023-05-02T21:43:25.089Z,1.13
2023-05-02T21:46:11.693Z,1.30
2023-05-02T21:48:57.162Z,1.00
2023-05-02T21:51:43.032Z,1.10
2023-05-02T21:54:28.455Z,1.20
2023-05-02T21:57:13.895Z,1.00
2023-05-02T21:59:59.352Z,1.10
2023-05-02T22:02:44.997Z,1.00
2023-05-02T22:05:30.620Z,1.10
2023-05-02T22:08:16.129Z,1.17
2023-05-02T22:11:05.298Z,1.50
2023-05-02T22:13:51.144Z,1.20
2023-05-02T22:16:37.374Z,1.17
2023-05-02T22:19:22.820Z,1.27
2023-05-02T22:22:08.247Z,1.50
2023-05-02T22:24:53.725Z,1.30
2023-05-02T22:27:39.224Z,1.30
2023-05-02T22:30:24.458Z,1.20
2023-05-02T22:33:10.042Z,1.20
2023-05-02T22:35:56.971Z,1.20
2023-05-02T22:38:42.518Z,1.30
2023-05-02T22:41:28.085Z,1.45
2023-05-02T22:44:13.256Z,1.15
2023-05-02T22:46:59.123Z,1.50
2023-05-02T22:49:45.895Z,1.20
2023-05-02T22:52:31.626Z,1.10
2023-05-02T22:55:17.430Z,1.20
2023-05-02T22:58:02.768Z,1.45
2023-05-02T23:00:48.211Z,1.38
2023-05-02T23:03:34.028Z,1.30
2023-05-02T23:06:19.761Z,1.60
2023-05-02T23:09:06.877Z,1.40
2023-05-02T23:11:52.291Z,1.50
2023-05-02T23:14:37.695Z,1.35
2023-05-02T23:17:23.463Z,1.40
2023-05-02T23:20:10.393Z,1.38
2023-05-02T23:22:56.183Z,1.23
2023-05-02T23:25:41.751Z,1.40
2023-05-02T23:28:26.900Z,1.23
2023-05-02T23:31:12.549Z,2.38
2023-05-02T23:33:58.195Z,3.00
2023-05-02T23:36:43.681Z,2.85
2023-05-02T23:39:29.336Z,1.83
2023-05-02T23:42:15.598Z,1.48
2023-05-02T23:45:01.031Z,2.00
2023-05-02T23:47:46.551Z,1.60
2023-05-02T23:50:32.670Z,1.65
2023-05-02T23:53:17.816Z,1.30
2023-05-02T23:56:03.297Z,1.00
2023-05-02T23:58:48.414Z,1.23
